sensor_id;sensor_type;location;lat;lon;timestamp;P1;durP1;ratioP1;P2;durP2;ratioP2
70825;SDS011;58446;41.490;22.098;2023-04-21T00:00:50;13.15;;;9.73;;
70825;SDS011;58446;41.490;22.098;2023-04-21T00:03:16;14.77;;;10.43;;
70825;SDS011;58446;41.490;22.098;2023-04-21T00:05:44;14.13;;;10.03;;
70825;SDS011;58446;41.490;22.098;2023-04-21T00:08:10;15.70;;;10.50;;
70825;SDS011;58446;41.490;22.098;2023-04-21T00:10:36;15.80;;;10.35;;
70825;SDS011;58446;41.490;22.098;2023-04-21T00:13:01;15.60;;;10.60;;
70825;SDS011;58446;41.490;22.098;2023-04-21T00:15:27;15.52;;;10.00;;
70825;SDS011;58446;41.490;22.098;2023-04-21T00:17:53;13.43;;;10.17;;
70825;SDS011;58446;41.490;22.098;2023-04-21T00:20:18;12.43;;;9.70;;
70825;SDS011;58446;41.490;22.098;2023-04-21T00:22:45;13.80;;;9.50;;
70825;SDS011;58446;41.490;22.098;2023-04-21T00:25:11;13.50;;;9.07;;
70825;SDS011;58446;41.490;22.098;2023-04-21T00:27:37;15.07;;;9.60;;
70825;SDS011;58446;41.490;22.098;2023-04-21T00:30:03;13.27;;;9.20;;
70825;SDS011;58446;41.490;22.098;2023-04-21T00:32:28;12.70;;;9.52;;
70825;SDS011;58446;41.490;22.098;2023-04-21T00:34:55;12.02;;;9.23;;
70825;SDS011;58446;41.490;22.098;2023-04-21T00:37:20;12.53;;;9.40;;
70825;SDS011;58446;41.490;22.098;2023-04-21T00:39:46;12.98;;;9.48;;
70825;SDS011;58446;41.490;22.098;2023-04-21T00:42:14;12.53;;;10.10;;
70825;SDS011;58446;41.490;22.098;2023-04-21T00:44:41;13.45;;;9.85;;
70825;SDS011;58446;41.490;22.098;2023-04-21T00:47:06;13.00;;;9.60;;
70825;SDS011;58446;41.490;22.098;2023-04-21T00:49:32;13.60;;;9.90;;
70825;SDS011;58446;41.490;22.098;2023-04-21T00:51:58;13.00;;;9.63;;
70825;SDS011;58446;41.490;22.098;2023-04-21T00:54:23;13.68;;;10.85;;
70825;SDS011;58446;41.490;22.098;2023-04-21T00:56:53;17.75;;;10.45;;
70825;SDS011;58446;41.490;22.098;2023-04-21T00:59:20;15.17;;;8.77;;
70825;SDS011;58446;41.490;22.098;2023-04-21T01:01:45;12.90;;;9.82;;
70825;SDS011;58446;41.490;22.098;2023-04-21T01:04:11;12.50;;;9.23;;
70825;SDS011;58446;41.490;22.098;2023-04-21T01:06:37;14.25;;;8.93;;
70825;SDS011;58446;41.490;22.098;2023-04-21T01:09:03;16.45;;;9.77;;
70825;SDS011;58446;41.490;22.098;2023-04-21T01:11:29;11.70;;;9.20;;
70825;SDS011;58446;41.490;22.098;2023-04-21T01:13:56;13.63;;;9.07;;
70825;SDS011;58446;41.490;22.098;2023-04-21T01:16:22;13.95;;;9.60;;
70825;SDS011;58446;41.490;22.098;2023-04-21T01:18:51;13.52;;;9.55;;
70825;SDS011;58446;41.490;22.098;2023-04-21T01:21:17;11.93;;;8.77;;
70825;SDS011;58446;41.490;22.098;2023-04-21T01:23:43;13.15;;;8.95;;
70825;SDS011;58446;41.490;22.098;2023-04-21T01:26:09;11.95;;;9.10;;
70825;SDS011;58446;41.490;22.098;2023-04-21T01:28:36;11.13;;;8.52;;
70825;SDS011;58446;41.490;22.098;2023-04-21T01:31:02;12.63;;;8.73;;
70825;SDS011;58446;41.490;22.098;2023-04-21T01:33:29;11.67;;;8.70;;
70825;SDS011;58446;41.490;22.098;2023-04-21T01:35:55;11.55;;;8.27;;
70825;SDS011;58446;41.490;22.098;2023-04-21T01:38:21;11.88;;;8.38;;
70825;SDS011;58446;41.490;22.098;2023-04-21T01:40:48;10.57;;;7.95;;
70825;SDS011;58446;41.490;22.098;2023-04-21T01:43:17;13.63;;;8.43;;
70825;SDS011;58446;41.490;22.098;2023-04-21T01:45:45;11.93;;;8.55;;
70825;SDS011;58446;41.490;22.098;2023-04-21T01:48:11;13.73;;;8.52;;
70825;SDS011;58446;41.490;22.098;2023-04-21T01:50:37;13.53;;;8.67;;
70825;SDS011;58446;41.490;22.098;2023-04-21T01:53:02;10.98;;;8.45;;
70825;SDS011;58446;41.490;22.098;2023-04-21T01:55:28;12.33;;;9.37;;
70825;SDS011;58446;41.490;22.098;2023-04-21T01:57:54;12.87;;;9.30;;
70825;SDS011;58446;41.490;22.098;2023-04-21T02:00:22;12.32;;;9.60;;
70825;SDS011;58446;41.490;22.098;2023-04-21T02:02:47;11.85;;;9.00;;
70825;SDS011;58446;41.490;22.098;2023-04-21T02:05:13;10.90;;;8.50;;
70825;SDS011;58446;41.490;22.098;2023-04-21T02:07:39;11.88;;;8.40;;
70825;SDS011;58446;41.490;22.098;2023-04-21T02:10:05;11.47;;;8.37;;
70825;SDS011;58446;41.490;22.098;2023-04-21T02:12:31;11.70;;;8.90;;
70825;SDS011;58446;41.490;22.098;2023-04-21T02:14:56;12.63;;;8.73;;
70825;SDS011;58446;41.490;22.098;2023-04-21T02:17:22;10.73;;;8.43;;
70825;SDS011;58446;41.490;22.098;2023-04-21T02:19:48;12.30;;;8.70;;
70825;SDS011;58446;41.490;22.098;2023-04-21T02:22:13;12.23;;;8.93;;
70825;SDS011;58446;41.490;22.098;2023-04-21T02:24:39;11.07;;;8.95;;
70825;SDS011;58446;41.490;22.098;2023-04-21T02:27:05;10.80;;;8.43;;
70825;SDS011;58446;41.490;22.098;2023-04-21T02:29:31;13.05;;;9.05;;
70825;SDS011;58446;41.490;22.098;2023-04-21T02:31:56;11.83;;;8.43;;
70825;SDS011;58446;41.490;22.098;2023-04-21T02:34:22;14.40;;;8.57;;
70825;SDS011;58446;41.490;22.098;2023-04-21T02:36:48;12.55;;;8.23;;
70825;SDS011;58446;41.490;22.098;2023-04-21T02:39:13;15.17;;;9.43;;
70825;SDS011;58446;41.490;22.098;2023-04-21T02:41:39;12.48;;;8.70;;
70825;SDS011;58446;41.490;22.098;2023-04-21T02:44:06;14.05;;;8.70;;
70825;SDS011;58446;41.490;22.098;2023-04-21T02:46:31;11.57;;;8.60;;
70825;SDS011;58446;41.490;22.098;2023-04-21T02:48:57;12.23;;;8.73;;
70825;SDS011;58446;41.490;22.098;2023-04-21T02:51:23;12.27;;;8.50;;
70825;SDS011;58446;41.490;22.098;2023-04-21T02:53:48;12.88;;;9.07;;
70825;SDS011;58446;41.490;22.098;2023-04-21T02:56:14;13.50;;;9.70;;
70825;SDS011;58446;41.490;22.098;2023-04-21T02:58:40;14.45;;;9.10;;
70825;SDS011;58446;41.490;22.098;2023-04-21T03:01:06;13.30;;;10.33;;
70825;SDS011;58446;41.490;22.098;2023-04-21T03:03:32;13.38;;;9.60;;
70825;SDS011;58446;41.490;22.098;2023-04-21T03:06:02;14.38;;;10.25;;
70825;SDS011;58446;41.490;22.098;2023-04-21T03:08:29;15.73;;;10.60;;
70825;SDS011;58446;41.490;22.098;2023-04-21T03:10:55;15.50;;;10.88;;
70825;SDS011;58446;41.490;22.098;2023-04-21T03:13:21;14.00;;;9.60;;
70825;SDS011;58446;41.490;22.098;2023-04-21T03:15:48;15.97;;;11.00;;
70825;SDS011;58446;41.490;22.098;2023-04-21T03:18:14;16.25;;;10.13;;
70825;SDS011;58446;41.490;22.098;2023-04-21T03:20:40;17.17;;;10.10;;
70825;SDS011;58446;41.490;22.098;2023-04-21T03:23:06;13.60;;;10.05;;
70825;SDS011;58446;41.490;22.098;2023-04-21T03:25:32;15.40;;;10.70;;
70825;SDS011;58446;41.490;22.098;2023-04-21T03:27:57;15.43;;;12.00;;
70825;SDS011;58446;41.490;22.098;2023-04-21T03:30:23;16.53;;;10.87;;
70825;SDS011;58446;41.490;22.098;2023-04-21T03:32:52;16.10;;;10.80;;
70825;SDS011;58446;41.490;22.098;2023-04-21T03:35:19;15.75;;;10.38;;
70825;SDS011;58446;41.490;22.098;2023-04-21T03:37:45;17.50;;;10.63;;
70825;SDS011;58446;41.490;22.098;2023-04-21T03:40:11;15.73;;;10.47;;
70825;SDS011;58446;41.490;22.098;2023-04-21T03:42:37;17.05;;;10.32;;
70825;SDS011;58446;41.490;22.098;2023-04-21T03:45:03;16.70;;;11.70;;
70825;SDS011;58446;41.490;22.098;2023-04-21T03:47:30;20.35;;;12.77;;
70825;SDS011;58446;41.490;22.098;2023-04-21T03:49:55;21.27;;;13.27;;
70825;SDS011;58446;41.490;22.098;2023-04-21T03:52:21;22.65;;;12.45;;
70825;SDS011;58446;41.490;22.098;2023-04-21T03:54:47;17.17;;;10.57;;
70825;SDS011;58446;41.490;22.098;2023-04-21T03:57:13;15.03;;;10.47;;
70825;SDS011;58446;41.490;22.098;2023-04-21T03:59:39;16.63;;;10.30;;
70825;SDS011;58446;41.490;22.098;2023-04-21T04:02:05;13.52;;;9.65;;
70825;SDS011;58446;41.490;22.098;2023-04-21T04:04:31;13.60;;;8.97;;
70825;SDS011;58446;41.490;22.098;2023-04-21T04:06:56;12.93;;;9.50;;
70825;SDS011;58446;41.490;22.098;2023-04-21T04:09:22;12.48;;;9.45;;
70825;SDS011;58446;41.490;22.098;2023-04-21T04:11:48;13.60;;;9.88;;
70825;SDS011;58446;41.490;22.098;2023-04-21T04:14:14;13.17;;;10.70;;
70825;SDS011;58446;41.490;22.098;2023-04-21T04:16:40;18.05;;;10.23;;
70825;SDS011;58446;41.490;22.098;2023-04-21T04:19:06;12.27;;;9.68;;
70825;SDS011;58446;41.490;22.098;2023-04-21T04:21:32;14.10;;;10.27;;
70825;SDS011;58446;41.490;22.098;2023-04-21T04:23:58;14.27;;;9.85;;
70825;SDS011;58446;41.490;22.098;2023-04-21T04:26:26;14.60;;;8.85;;
70825;SDS011;58446;41.490;22.098;2023-04-21T04:28:53;12.80;;;9.48;;
70825;SDS011;58446;41.490;22.098;2023-04-21T04:31:23;14.05;;;9.50;;
70825;SDS011;58446;41.490;22.098;2023-04-21T04:33:52;12.80;;;10.03;;
70825;SDS011;58446;41.490;22.098;2023-04-21T04:36:18;13.93;;;9.73;;
70825;SDS011;58446;41.490;22.098;2023-04-21T04:38:44;14.52;;;10.10;;
70825;SDS011;58446;41.490;22.098;2023-04-21T04:41:10;13.32;;;9.98;;
70825;SDS011;58446;41.490;22.098;2023-04-21T04:43:37;27.03;;;17.00;;
70825;SDS011;58446;41.490;22.098;2023-04-21T04:46:05;18.27;;;11.75;;
70825;SDS011;58446;41.490;22.098;2023-04-21T04:48:33;12.25;;;9.75;;
70825;SDS011;58446;41.490;22.098;2023-04-21T04:50:59;13.77;;;10.50;;
70825;SDS011;58446;41.490;22.098;2023-04-21T04:53:28;16.15;;;10.95;;
70825;SDS011;58446;41.490;22.098;2023-04-21T04:55:54;14.90;;;11.47;;
70825;SDS011;58446;41.490;22.098;2023-04-21T04:58:21;15.18;;;10.48;;
70825;SDS011;58446;41.490;22.098;2023-04-21T05:00:47;15.02;;;11.20;;
70825;SDS011;58446;41.490;22.098;2023-04-21T05:03:13;14.67;;;10.37;;
70825;SDS011;58446;41.490;22.098;2023-04-21T05:05:38;14.18;;;11.25;;
70825;SDS011;58446;41.490;22.098;2023-04-21T05:08:04;14.10;;;10.83;;
70825;SDS011;58446;41.490;22.098;2023-04-21T05:10:30;14.63;;;9.77;;
70825;SDS011;58446;41.490;22.098;2023-04-21T05:12:55;16.03;;;10.37;;
70825;SDS011;58446;41.490;22.098;2023-04-21T05:15:21;18.20;;;13.45;;
70825;SDS011;58446;41.490;22.098;2023-04-21T05:17:47;17.90;;;12.17;;
70825;SDS011;58446;41.490;22.098;2023-04-21T05:20:13;15.18;;;10.73;;
70825;SDS011;58446;41.490;22.098;2023-04-21T05:22:39;16.88;;;10.98;;
70825;SDS011;58446;41.490;22.098;2023-04-21T05:25:05;16.67;;;11.55;;
70825;SDS011;58446;41.490;22.098;2023-04-21T05:27:32;15.15;;;11.15;;
70825;SDS011;58446;41.490;22.098;2023-04-21T05:30:00;16.30;;;11.20;;
70825;SDS011;58446;41.490;22.098;2023-04-21T05:32:26;15.80;;;9.75;;
70825;SDS011;58446;41.490;22.098;2023-04-21T05:34:53;12.30;;;8.65;;
70825;SDS011;58446;41.490;22.098;2023-04-21T05:37:18;14.50;;;9.10;;
70825;SDS011;58446;41.490;22.098;2023-04-21T05:39:44;11.27;;;8.77;;
70825;SDS011;58446;41.490;22.098;2023-04-21T05:42:10;11.40;;;8.60;;
70825;SDS011;58446;41.490;22.098;2023-04-21T05:44:36;12.65;;;9.10;;
70825;SDS011;58446;41.490;22.098;2023-04-21T05:47:03;14.32;;;8.48;;
70825;SDS011;58446;41.490;22.098;2023-04-21T05:49:30;12.02;;;8.70;;
70825;SDS011;58446;41.490;22.098;2023-04-21T05:51:56;11.90;;;8.80;;
70825;SDS011;58446;41.490;22.098;2023-04-21T05:54:21;11.17;;;8.27;;
70825;SDS011;58446;41.490;22.098;2023-04-21T05:56:47;10.38;;;7.25;;
70825;SDS011;58446;41.490;22.098;2023-04-21T05:59:13;10.23;;;7.77;;
70825;SDS011;58446;41.490;22.098;2023-04-21T06:01:39;11.98;;;8.35;;
70825;SDS011;58446;41.490;22.098;2023-04-21T06:04:04;12.20;;;8.77;;
70825;SDS011;58446;41.490;22.098;2023-04-21T06:06:30;10.20;;;8.27;;
70825;SDS011;58446;41.490;22.098;2023-04-21T06:08:56;10.27;;;7.87;;
70825;SDS011;58446;41.490;22.098;2023-04-21T06:11:22;11.38;;;8.50;;
70825;SDS011;58446;41.490;22.098;2023-04-21T06:13:48;10.60;;;8.25;;
70825;SDS011;58446;41.490;22.098;2023-04-21T06:16:14;12.20;;;8.07;;
70825;SDS011;58446;41.490;22.098;2023-04-21T06:18:40;10.10;;;7.63;;
70825;SDS011;58446;41.490;22.098;2023-04-21T06:21:06;11.88;;;8.65;;
70825;SDS011;58446;41.490;22.098;2023-04-21T06:23:32;13.40;;;9.50;;
70825;SDS011;58446;41.490;22.098;2023-04-21T06:25:59;12.30;;;8.38;;
70825;SDS011;58446;41.490;22.098;2023-04-21T06:28:32;11.07;;;8.50;;
70825;SDS011;58446;41.490;22.098;2023-04-21T06:30:58;12.23;;;8.98;;
70825;SDS011;58446;41.490;22.098;2023-04-21T06:33:27;11.82;;;8.40;;
70825;SDS011;58446;41.490;22.098;2023-04-21T06:35:53;12.80;;;8.30;;
70825;SDS011;58446;41.490;22.098;2023-04-21T06:38:19;12.10;;;9.18;;
70825;SDS011;58446;41.490;22.098;2023-04-21T06:40:45;12.93;;;8.40;;
70825;SDS011;58446;41.490;22.098;2023-04-21T06:43:11;12.85;;;8.43;;
70825;SDS011;58446;41.490;22.098;2023-04-21T06:45:37;11.87;;;8.37;;
70825;SDS011;58446;41.490;22.098;2023-04-21T06:48:03;13.43;;;8.97;;
70825;SDS011;58446;41.490;22.098;2023-04-21T06:50:29;13.57;;;8.45;;
70825;SDS011;58446;41.490;22.098;2023-04-21T06:52:55;11.53;;;8.20;;
70825;SDS011;58446;41.490;22.098;2023-04-21T06:55:20;13.52;;;9.90;;
70825;SDS011;58446;41.490;22.098;2023-04-21T06:57:46;12.83;;;8.87;;
70825;SDS011;58446;41.490;22.098;2023-04-21T07:00:12;11.75;;;8.50;;
70825;SDS011;58446;41.490;22.098;2023-04-21T07:02:38;10.80;;;7.90;;
70825;SDS011;58446;41.490;22.098;2023-04-21T07:05:05;10.15;;;7.95;;
70825;SDS011;58446;41.490;22.098;2023-04-21T07:07:31;12.03;;;8.53;;
70825;SDS011;58446;41.490;22.098;2023-04-21T07:09:57;12.60;;;8.23;;
70825;SDS011;58446;41.490;22.098;2023-04-21T07:12:24;14.85;;;9.05;;
70825;SDS011;58446;41.490;22.098;2023-04-21T07:14:50;12.13;;;8.67;;
70825;SDS011;58446;41.490;22.098;2023-04-21T07:17:16;12.15;;;8.30;;
70825;SDS011;58446;41.490;22.098;2023-04-21T07:19:41;11.13;;;8.07;;
70825;SDS011;58446;41.490;22.098;2023-04-21T07:22:07;13.35;;;8.52;;
70825;SDS011;58446;41.490;22.098;2023-04-21T07:24:33;14.33;;;8.90;;
70825;SDS011;58446;41.490;22.098;2023-04-21T07:26:59;13.20;;;8.63;;
70825;SDS011;58446;41.490;22.098;2023-04-21T07:29:26;13.02;;;8.68;;
70825;SDS011;58446;41.490;22.098;2023-04-21T07:31:52;11.90;;;8.50;;
70825;SDS011;58446;41.490;22.098;2023-04-21T07:34:19;12.27;;;9.23;;
70825;SDS011;58446;41.490;22.098;2023-04-21T07:36:45;12.88;;;9.57;;
70825;SDS011;58446;41.490;22.098;2023-04-21T07:39:11;12.82;;;8.35;;
70825;SDS011;58446;41.490;22.098;2023-04-21T07:41:38;12.47;;;8.53;;
70825;SDS011;58446;41.490;22.098;2023-04-21T07:44:04;12.45;;;8.57;;
70825;SDS011;58446;41.490;22.098;2023-04-21T07:46:30;12.13;;;8.75;;
70825;SDS011;58446;41.490;22.098;2023-04-21T07:48:57;11.70;;;8.35;;
70825;SDS011;58446;41.490;22.098;2023-04-21T07:51:23;11.97;;;8.07;;
70825;SDS011;58446;41.490;22.098;2023-04-21T07:53:51;13.10;;;8.30;;
70825;SDS011;58446;41.490;22.098;2023-04-21T07:56:17;11.48;;;8.55;;
70825;SDS011;58446;41.490;22.098;2023-04-21T07:58:43;12.13;;;8.40;;
70825;SDS011;58446;41.490;22.098;2023-04-21T08:01:13;13.33;;;8.63;;
70825;SDS011;58446;41.490;22.098;2023-04-21T08:03:39;14.43;;;8.70;;
70825;SDS011;58446;41.490;22.098;2023-04-21T08:06:06;14.10;;;9.13;;
70825;SDS011;58446;41.490;22.098;2023-04-21T08:08:32;12.48;;;8.80;;
70825;SDS011;58446;41.490;22.098;2023-04-21T08:10:58;13.43;;;8.37;;
70825;SDS011;58446;41.490;22.098;2023-04-21T08:13:24;14.13;;;8.52;;
70825;SDS011;58446;41.490;22.098;2023-04-21T08:15:50;16.97;;;8.90;;
70825;SDS011;58446;41.490;22.098;2023-04-21T08:18:17;14.85;;;8.88;;
70825;SDS011;58446;41.490;22.098;2023-04-21T08:20:44;17.33;;;11.05;;
70825;SDS011;58446;41.490;22.098;2023-04-21T08:23:12;12.18;;;8.18;;
70825;SDS011;58446;41.490;22.098;2023-04-21T08:25:39;15.77;;;8.07;;
70825;SDS011;58446;41.490;22.098;2023-04-21T08:28:04;13.43;;;8.35;;
70825;SDS011;58446;41.490;22.098;2023-04-21T08:30:30;12.73;;;8.30;;
70825;SDS011;58446;41.490;22.098;2023-04-21T08:32:56;16.40;;;8.30;;
70825;SDS011;58446;41.490;22.098;2023-04-21T08:35:22;14.00;;;8.93;;
70825;SDS011;58446;41.490;22.098;2023-04-21T08:37:48;13.85;;;8.23;;
70825;SDS011;58446;41.490;22.098;2023-04-21T08:40:14;12.60;;;8.63;;
70825;SDS011;58446;41.490;22.098;2023-04-21T08:42:40;13.32;;;8.40;;
70825;SDS011;58446;41.490;22.098;2023-04-21T08:45:07;11.37;;;7.93;;
70825;SDS011;58446;41.490;22.098;2023-04-21T08:47:33;12.60;;;8.80;;
70825;SDS011;58446;41.490;22.098;2023-04-21T08:50:01;12.13;;;8.68;;
70825;SDS011;58446;41.490;22.098;2023-04-21T08:52:27;13.88;;;8.45;;
70825;SDS011;58446;41.490;22.098;2023-04-21T08:54:52;12.97;;;8.60;;
70825;SDS011;58446;41.490;22.098;2023-04-21T08:57:20;16.10;;;9.02;;
70825;SDS011;58446;41.490;22.098;2023-04-21T08:59:46;14.75;;;8.40;;
70825;SDS011;58446;41.490;22.098;2023-04-21T09:02:13;12.93;;;8.47;;
70825;SDS011;58446;41.490;22.098;2023-04-21T09:04:47;14.80;;;9.02;;
70825;SDS011;58446;41.490;22.098;2023-04-21T09:07:30;20.92;;;11.45;;
70825;SDS011;58446;41.490;22.098;2023-04-21T09:10:00;14.30;;;8.77;;
70825;SDS011;58446;41.490;22.098;2023-04-21T09:12:28;14.13;;;8.63;;
70825;SDS011;58446;41.490;22.098;2023-04-21T09:14:54;12.63;;;8.47;;
70825;SDS011;58446;41.490;22.098;2023-04-21T09:17:27;12.95;;;8.20;;
70825;SDS011;58446;41.490;22.098;2023-04-21T09:20:14;22.17;;;11.90;;
70825;SDS011;58446;41.490;22.098;2023-04-21T09:22:42;14.35;;;8.80;;
70825;SDS011;58446;41.490;22.098;2023-04-21T09:25:08;23.13;;;10.70;;
70825;SDS011;58446;41.490;22.098;2023-04-21T09:27:36;12.40;;;8.67;;
70825;SDS011;58446;41.490;22.098;2023-04-21T09:30:04;14.30;;;8.57;;
70825;SDS011;58446;41.490;22.098;2023-04-21T09:32:37;12.88;;;8.45;;
70825;SDS011;58446;41.490;22.098;2023-04-21T09:35:13;13.80;;;9.10;;
70825;SDS011;58446;41.490;22.098;2023-04-21T09:37:39;16.00;;;10.60;;
70825;SDS011;58446;41.490;22.098;2023-04-21T09:40:11;13.68;;;9.00;;
70825;SDS011;58446;41.490;22.098;2023-04-21T09:42:38;13.95;;;8.70;;
70825;SDS011;58446;41.490;22.098;2023-04-21T09:45:05;12.60;;;8.15;;
70825;SDS011;58446;41.490;22.098;2023-04-21T09:47:35;12.73;;;8.37;;
70825;SDS011;58446;41.490;22.098;2023-04-21T09:50:05;12.68;;;8.27;;
70825;SDS011;58446;41.490;22.098;2023-04-21T09:52:32;12.48;;;8.25;;
70825;SDS011;58446;41.490;22.098;2023-04-21T09:55:01;10.43;;;6.00;;
70825;SDS011;58446;41.490;22.098;2023-04-21T09:57:29;11.80;;;7.95;;
70825;SDS011;58446;41.490;22.098;2023-04-21T10:00:00;11.87;;;8.00;;
70825;SDS011;58446;41.490;22.098;2023-04-21T10:02:37;12.00;;;8.60;;
70825;SDS011;58446;41.490;22.098;2023-04-21T10:05:10;11.90;;;8.35;;
70825;SDS011;58446;41.490;22.098;2023-04-21T10:07:37;14.40;;;9.10;;
70825;SDS011;58446;41.490;22.098;2023-04-21T10:10:02;11.10;;;8.00;;
70825;SDS011;58446;41.490;22.098;2023-04-21T10:12:33;12.23;;;8.73;;
70825;SDS011;58446;41.490;22.098;2023-04-21T10:15:02;14.30;;;8.70;;
70825;SDS011;58446;41.490;22.098;2023-04-21T10:17:33;10.93;;;7.90;;
70825;SDS011;58446;41.490;22.098;2023-04-21T10:20:03;11.32;;;8.30;;
70825;SDS011;58446;41.490;22.098;2023-04-21T10:22:32;10.30;;;7.90;;
70825;SDS011;58446;41.490;22.098;2023-04-21T10:25:02;13.43;;;8.50;;
70825;SDS011;58446;41.490;22.098;2023-04-21T10:27:41;11.50;;;8.07;;
70825;SDS011;58446;41.490;22.098;2023-04-21T10:30:21;13.43;;;8.40;;
70825;SDS011;58446;41.490;22.098;2023-04-21T10:32:47;11.43;;;8.50;;
70825;SDS011;58446;41.490;22.098;2023-04-21T10:35:36;13.05;;;8.65;;
70825;SDS011;58446;41.490;22.098;2023-04-21T10:38:42;12.13;;;8.90;;
70825;SDS011;58446;41.490;22.098;2023-04-21T10:41:27;10.98;;;8.30;;
70825;SDS011;58446;41.490;22.098;2023-04-21T10:43:57;12.05;;;8.32;;
70825;SDS011;58446;41.490;22.098;2023-04-21T10:46:31;11.95;;;8.38;;
70825;SDS011;58446;41.490;22.098;2023-04-21T10:52:18;13.20;;;8.20;;
70825;SDS011;58446;41.490;22.098;2023-04-21T10:54:28;15.73;;;10.35;;
70825;SDS011;58446;41.490;22.098;2023-04-21T10:57:00;14.95;;;10.02;;
70825;SDS011;58446;41.490;22.098;2023-04-21T10:59:29;15.85;;;9.50;;
70825;SDS011;58446;41.490;22.098;2023-04-21T11:01:55;14.23;;;8.33;;
70825;SDS011;58446;41.490;22.098;2023-04-21T11:04:21;11.65;;;7.45;;
70825;SDS011;58446;41.490;22.098;2023-04-21T11:07:06;12.38;;;6.22;;
70825;SDS011;58446;41.490;22.098;2023-04-21T11:09:34;9.00;;;6.13;;
70825;SDS011;58446;41.490;22.098;2023-04-21T11:12:05;10.40;;;6.40;;
70825;SDS011;58446;41.490;22.098;2023-04-21T11:14:33;10.40;;;6.20;;
70825;SDS011;58446;41.490;22.098;2023-04-21T11:17:00;9.00;;;5.75;;
70825;SDS011;58446;41.490;22.098;2023-04-21T11:19:26;9.48;;;5.88;;
70825;SDS011;58446;41.490;22.098;2023-04-21T11:21:52;8.10;;;5.60;;
70825;SDS011;58446;41.490;22.098;2023-04-21T11:24:22;8.93;;;6.20;;
70825;SDS011;58446;41.490;22.098;2023-04-21T11:26:48;10.20;;;6.13;;
70825;SDS011;58446;41.490;22.098;2023-04-21T11:29:14;15.68;;;9.07;;
70825;SDS011;58446;41.490;22.098;2023-04-21T11:31:42;10.68;;;6.45;;
70825;SDS011;58446;41.490;22.098;2023-04-21T11:34:09;8.17;;;5.53;;
70825;SDS011;58446;41.490;22.098;2023-04-21T11:36:39;11.73;;;7.15;;
70825;SDS011;58446;41.490;22.098;2023-04-21T11:39:07;11.45;;;6.80;;
70825;SDS011;58446;41.490;22.098;2023-04-21T11:41:38;13.85;;;8.70;;
70825;SDS011;58446;41.490;22.098;2023-04-21T11:44:08;9.13;;;5.75;;
70825;SDS011;58446;41.490;22.098;2023-04-21T11:46:35;8.70;;;5.43;;
70825;SDS011;58446;41.490;22.098;2023-04-21T11:49:02;12.30;;;7.35;;
70825;SDS011;58446;41.490;22.098;2023-04-21T11:51:38;13.27;;;9.43;;
70825;SDS011;58446;41.490;22.098;2023-04-21T11:54:12;10.30;;;6.68;;
70825;SDS011;58446;41.490;22.098;2023-04-21T11:56:40;12.85;;;6.70;;
70825;SDS011;58446;41.490;22.098;2023-04-21T11:59:10;9.63;;;6.97;;
70825;SDS011;58446;41.490;22.098;2023-04-21T12:01:47;11.73;;;5.75;;
70825;SDS011;58446;41.490;22.098;2023-04-21T12:04:18;9.85;;;6.20;;
70825;SDS011;58446;41.490;22.098;2023-04-21T12:06:46;9.07;;;5.97;;
70825;SDS011;58446;41.490;22.098;2023-04-21T12:09:20;8.02;;;6.00;;
70825;SDS011;58446;41.490;22.098;2023-04-21T12:11:47;11.00;;;6.20;;
70825;SDS011;58446;41.490;22.098;2023-04-21T12:14:14;8.55;;;6.05;;
70825;SDS011;58446;41.490;22.098;2023-04-21T12:16:41;8.52;;;5.70;;
70825;SDS011;58446;41.490;22.098;2023-04-21T12:19:07;8.40;;;5.73;;
70825;SDS011;58446;41.490;22.098;2023-04-21T12:21:35;10.10;;;6.40;;
70825;SDS011;58446;41.490;22.098;2023-04-21T12:24:03;9.48;;;6.38;;
70825;SDS011;58446;41.490;22.098;2023-04-21T12:26:29;10.70;;;7.22;;
70825;SDS011;58446;41.490;22.098;2023-04-21T12:28:55;10.95;;;6.78;;
70825;SDS011;58446;41.490;22.098;2023-04-21T12:31:21;12.03;;;7.03;;
70825;SDS011;58446;41.490;22.098;2023-04-21T12:33:47;9.30;;;6.68;;
70825;SDS011;58446;41.490;22.098;2023-04-21T12:36:13;9.77;;;6.70;;
70825;SDS011;58446;41.490;22.098;2023-04-21T12:38:38;13.30;;;7.18;;
70825;SDS011;58446;41.490;22.098;2023-04-21T12:41:04;12.23;;;6.07;;
70825;SDS011;58446;41.490;22.098;2023-04-21T12:43:31;10.50;;;7.53;;
70825;SDS011;58446;41.490;22.098;2023-04-21T12:45:56;9.88;;;7.15;;
70825;SDS011;58446;41.490;22.098;2023-04-21T12:48:22;10.27;;;7.00;;
70825;SDS011;58446;41.490;22.098;2023-04-21T12:50:49;9.45;;;6.88;;
70825;SDS011;58446;41.490;22.098;2023-04-21T12:53:16;10.10;;;6.93;;
70825;SDS011;58446;41.490;22.098;2023-04-21T12:55:42;10.50;;;6.57;;
70825;SDS011;58446;41.490;22.098;2023-04-21T12:58:09;10.10;;;7.05;;
70825;SDS011;58446;41.490;22.098;2023-04-21T13:00:36;9.43;;;6.57;;
70825;SDS011;58446;41.490;22.098;2023-04-21T13:03:02;9.70;;;6.82;;
70825;SDS011;58446;41.490;22.098;2023-04-21T13:05:28;9.73;;;7.20;;
70825;SDS011;58446;41.490;22.098;2023-04-21T13:07:54;10.98;;;7.80;;
70825;SDS011;58446;41.490;22.098;2023-04-21T13:10:20;10.20;;;7.27;;
70825;SDS011;58446;41.490;22.098;2023-04-21T13:12:46;10.90;;;7.50;;
70825;SDS011;58446;41.490;22.098;2023-04-21T13:15:11;8.98;;;7.18;;
70825;SDS011;58446;41.490;22.098;2023-04-21T13:17:37;9.40;;;6.87;;
70825;SDS011;58446;41.490;22.098;2023-04-21T13:20:03;11.00;;;6.93;;
70825;SDS011;58446;41.490;22.098;2023-04-21T13:22:30;11.82;;;8.05;;
70825;SDS011;58446;41.490;22.098;2023-04-21T13:24:57;11.17;;;7.00;;
70825;SDS011;58446;41.490;22.098;2023-04-21T13:27:23;10.55;;;6.93;;
70825;SDS011;58446;41.490;22.098;2023-04-21T13:29:49;10.07;;;6.73;;
70825;SDS011;58446;41.490;22.098;2023-04-21T13:32:15;10.13;;;7.47;;
70825;SDS011;58446;41.490;22.098;2023-04-21T13:34:40;10.00;;;7.15;;
70825;SDS011;58446;41.490;22.098;2023-04-21T13:37:06;10.07;;;6.87;;
70825;SDS011;58446;41.490;22.098;2023-04-21T13:39:35;11.13;;;7.20;;
70825;SDS011;58446;41.490;22.098;2023-04-21T13:42:01;10.52;;;6.38;;
70825;SDS011;58446;41.490;22.098;2023-04-21T13:44:26;9.32;;;6.47;;
70825;SDS011;58446;41.490;22.098;2023-04-21T13:46:52;8.67;;;6.40;;
70825;SDS011;58446;41.490;22.098;2023-04-21T13:49:18;8.10;;;6.38;;
70825;SDS011;58446;41.490;22.098;2023-04-21T13:51:45;10.55;;;6.38;;
70825;SDS011;58446;41.490;22.098;2023-04-21T13:54:10;10.73;;;7.03;;
70825;SDS011;58446;41.490;22.098;2023-04-21T13:56:36;9.27;;;6.55;;
70825;SDS011;58446;41.490;22.098;2023-04-21T13:59:02;8.33;;;5.97;;
70825;SDS011;58446;41.490;22.098;2023-04-21T14:01:28;9.45;;;6.28;;
70825;SDS011;58446;41.490;22.098;2023-04-21T14:03:54;8.70;;;5.85;;
70825;SDS011;58446;41.490;22.098;2023-04-21T14:06:21;8.70;;;5.80;;
70825;SDS011;58446;41.490;22.098;2023-04-21T14:08:46;9.30;;;6.18;;
70825;SDS011;58446;41.490;22.098;2023-04-21T14:11:12;8.47;;;6.30;;
70825;SDS011;58446;41.490;22.098;2023-04-21T14:13:38;8.43;;;6.32;;
70825;SDS011;58446;41.490;22.098;2023-04-21T14:16:03;8.93;;;7.17;;
70825;SDS011;58446;41.490;22.098;2023-04-21T14:18:29;9.88;;;7.63;;
70825;SDS011;58446;41.490;22.098;2023-04-21T14:20:55;9.90;;;7.70;;
70825;SDS011;58446;41.490;22.098;2023-04-21T14:23:21;9.90;;;6.73;;